createdAt,value
2022-12-16T00:01:06.204Z,98799.68
2022-12-16T00:04:07.948Z,98794.77
2022-12-16T00:07:13.332Z,98792.40
2022-12-16T00:10:15.288Z,98800.02
2022-12-16T00:13:16.907Z,98796.14
2022-12-16T00:16:20.655Z,98794.27
2022-12-16T00:19:22.386Z,98786.31
2022-12-16T00:22:24.050Z,98791.38
2022-12-16T00:25:25.694Z,98779.02
2022-12-16T00:28:27.787Z,98772.26
2022-12-16T00:31:29.576Z,98781.73
2022-12-16T00:34:31.167Z,98788.67
2022-12-16T00:37:32.900Z,98790.54
2022-12-16T00:40:34.897Z,98789.70
2022-12-16T00:43:36.809Z,98779.02
2022-12-16T00:46:38.609Z,98775.63
2022-12-16T00:49:43.450Z,98772.08
2022-12-16T00:52:45.230Z,98774.96
2022-12-16T00:55:47.529Z,98778.67
2022-12-16T00:58:49.362Z,98780.38
2022-12-16T01:01:51.885Z,98782.25
2022-12-16T01:04:54.142Z,98788.01
2022-12-16T01:07:57.385Z,98778.84
2022-12-16T01:11:00.112Z,98776.48
2022-12-16T01:14:01.938Z,98782.08
2022-12-16T01:17:03.552Z,98779.05
2022-12-16T01:20:06.147Z,98767.52
2022-12-16T01:23:08.171Z,98756.19
2022-12-16T01:26:10.650Z,98753.13
2022-12-16T01:29:12.386Z,98748.73
2022-12-16T01:32:16.168Z,98742.81
2022-12-16T01:35:50.812Z,98738.23
2022-12-16T01:38:42.499Z,98732.79
2022-12-16T01:41:44.247Z,98727.70
2022-12-16T01:44:46.864Z,98722.98
2022-12-16T01:47:48.596Z,98711.48
2022-12-16T01:50:50.665Z,98701.14
2022-12-16T01:53:58.193Z,98701.48
2022-12-16T01:57:07.169Z,98691.83
2022-12-16T02:00:10.539Z,98692.00
2022-12-16T02:03:12.370Z,98682.02
2022-12-16T02:06:14.031Z,98679.64
2022-12-16T02:09:16.660Z,98678.29
2022-12-16T02:12:46.187Z,98680.16
2022-12-16T02:16:16.963Z,98669.65
2022-12-16T02:19:38.421Z,98670.65
2022-12-16T02:23:10.816Z,98676.06
2022-12-16T02:26:37.249Z,98674.88
2022-12-16T02:30:05.003Z,98667.61
2022-12-16T02:33:13.253Z,98669.46
2022-12-16T02:36:30.397Z,98664.92
2022-12-16T02:39:35.936Z,98662.42
2022-12-16T02:43:04.546Z,98658.73
2022-12-16T02:46:07.662Z,98651.13
2022-12-16T02:49:32.819Z,98641.96
2022-12-16T02:52:35.227Z,98632.64
2022-12-16T02:56:15.833Z,98627.04
2022-12-16T02:59:40.341Z,98605.83
2022-12-16T03:02:49.590Z,98591.23
2022-12-16T03:05:52.718Z,98581.71
2022-12-16T03:08:57.203Z,98580.84
2022-12-16T03:12:00.608Z,98582.20
2022-12-16T03:15:02.963Z,98579.29
2022-12-16T03:18:06.316Z,98577.74
2022-12-16T03:21:08.940Z,98575.02
2022-12-16T03:24:14.029Z,98571.78
2022-12-16T03:27:20.942Z,98572.44
2022-12-16T03:30:28.871Z,98573.43
2022-12-16T03:33:38.879Z,98567.98
2022-12-16T03:36:42.194Z,98561.02
2022-12-16T03:39:49.936Z,98557.98
2022-12-16T03:42:53.223Z,98554.58
2022-12-16T03:45:57.976Z,98549.48
2022-12-16T03:48:59.827Z,98545.42
2022-12-16T03:52:01.571Z,98540.16
2022-12-16T03:55:03.345Z,98536.95
2022-12-16T03:58:05.023Z,98534.06
2022-12-16T04:01:09.556Z,98530.51
2022-12-16T04:04:11.490Z,98522.73
2022-12-16T04:07:24.653Z,98517.29
2022-12-16T04:10:45.546Z,98504.75
2022-12-16T04:14:06.017Z,98497.30
2022-12-16T04:17:31.116Z,98487.34
2022-12-16T04:20:55.132Z,98481.25
2022-12-16T04:24:16.168Z,98466.34
2022-12-16T04:27:27.998Z,98455.66
2022-12-16T04:30:34.589Z,98457.04
2022-12-16T04:33:55.276Z,98449.59
2022-12-16T04:37:17.901Z,98451.13
2022-12-16T04:40:38.588Z,98459.09
2022-12-16T04:43:59.835Z,98465.85
2022-12-16T04:47:20.084Z,98454.31
2022-12-16T04:50:40.480Z,98456.33
2022-12-16T04:54:08.556Z,98462.40
2022-12-16T04:57:29.132Z,98459.48
2022-12-16T05:00:49.579Z,98455.91
2022-12-16T05:04:09.822Z,98449.98
2022-12-16T05:07:36.301Z,98451.04
2022-12-16T05:10:58.384Z,98451.13
2022-12-16T05:14:18.791Z,98460.66
2022-12-16T05:17:40.046Z,98457.11
2022-12-16T05:21:00.475Z,98443.00
2022-12-16T05:24:21.059Z,98439.30
2022-12-16T05:27:41.385Z,98425.94
2022-12-16T05:31:01.867Z,98411.51
2022-12-16T05:34:22.423Z,98399.09
2022-12-16T05:37:42.760Z,98390.17
2022-12-16T05:41:03.585Z,98392.17
2022-12-16T05:44:24.462Z,98391.59
2022-12-16T05:47:45.238Z,98406.60
2022-12-16T05:51:05.642Z,98420.16
2022-12-16T05:54:26.399Z,98437.23
2022-12-16T05:57:46.761Z,98445.29
2022-12-16T06:01:07.491Z,98432.38
2022-12-16T06:04:27.942Z,98431.41
2022-12-16T06:07:48.659Z,98432.95
2022-12-16T06:11:09.240Z,98433.93
2022-12-16T06:14:29.974Z,98434.35
2022-12-16T06:17:50.197Z,98437.80
2022-12-16T06:21:10.463Z,98429.23
2022-12-16T06:24:30.926Z,98416.02
2022-12-16T06:27:51.339Z,98412.62
2022-12-16T06:31:11.896Z,98413.65
2022-12-16T06:34:32.432Z,98409.64
2022-12-16T06:37:52.768Z,98401.41
2022-12-16T06:41:13.232Z,98388.66
2022-12-16T06:44:33.650Z,98383.40
2022-12-16T06:47:54.208Z,98386.66
2022-12-16T06:51:14.657Z,98398.60
2022-12-16T06:54:35.291Z,98406.30
2022-12-16T06:57:55.712Z,98406.70
2022-12-16T07:01:15.992Z,98413.05
2022-12-16T07:04:36.446Z,98409.08
2022-12-16T07:07:56.795Z,98398.33
2022-12-16T07:11:17.675Z,98393.17
2022-12-16T07:14:38.057Z,98386.67
2022-12-16T07:17:59.560Z,98387.98
2022-12-16T07:21:20.161Z,98390.30
2022-12-16T07:24:40.715Z,98387.54
2022-12-16T07:28:07.314Z,98392.04
2022-12-16T07:31:30.272Z,98386.34
2022-12-16T07:34:50.960Z,98386.25
2022-12-16T07:38:11.423Z,98391.09
2022-12-16T07:41:32.101Z,98388.84
2022-12-16T07:44:52.638Z,98387.25
2022-12-16T07:48:13.064Z,98385.12
2022-12-16T07:51:33.389Z,98384.69
2022-12-16T07:54:53.774Z,98381.38
2022-12-16T07:58:16.171Z,98380.73
2022-12-16T08:01:36.549Z,98382.23
2022-12-16T08:04:56.788Z,98387.59
2022-12-16T08:08:17.149Z,98389.55
2022-12-16T08:11:37.494Z,98390.17
2022-12-16T08:14:58.038Z,98390.82
2022-12-16T08:18:18.636Z,98392.48
2022-12-16T08:21:39.133Z,98385.43
2022-12-16T08:24:59.675Z,98380.15
2022-12-16T08:28:19.918Z,98380.51
2022-12-16T08:31:40.390Z,98381.45
2022-12-16T08:35:00.947Z,98380.17
2022-12-16T08:38:21.499Z,98378.09
2022-12-16T08:41:41.741Z,98372.86
2022-12-16T08:45:02.004Z,98375.16
2022-12-16T08:48:22.524Z,98369.66
2022-12-16T08:51:43.103Z,98372.00
2022-12-16T08:55:03.302Z,98366.56
2022-12-16T08:58:23.803Z,98352.80
2022-12-16T09:01:44.251Z,98350.49
2022-12-16T09:05:04.612Z,98349.73
2022-12-16T09:08:24.870Z,98351.27
2022-12-16T09:11:45.525Z,98352.00
2022-12-16T09:15:06.062Z,98343.34
2022-12-16T09:18:26.729Z,98338.52
2022-12-16T09:21:47.477Z,98342.21
2022-12-16T09:25:11.790Z,98342.85
2022-12-16T09:28:32.039Z,98344.42
2022-12-16T09:31:52.581Z,98346.83
2022-12-16T09:35:13.853Z,98345.86
2022-12-16T09:38:34.738Z,98348.81
2022-12-16T09:42:17.942Z,98346.46
2022-12-16T09:45:45.636Z,98336.32
2022-12-16T09:49:26.029Z,98331.55
2022-12-16T09:52:47.769Z,98330.12
2022-12-16T09:56:08.316Z,98336.38
2022-12-16T09:59:32.710Z,98340.81
2022-12-16T10:02:53.084Z,98336.76
2022-12-16T10:06:28.443Z,98345.56
2022-12-16T10:10:00.039Z,98355.11
2022-12-16T10:13:42.864Z,98365.06
2022-12-16T10:17:40.297Z,98367.98
2022-12-16T10:21:08.639Z,98372.63
2022-12-16T10:24:41.856Z,98375.70
2022-12-16T10:28:08.186Z,98373.52
2022-12-16T10:31:32.735Z,98371.33
2022-12-16T10:34:54.535Z,98372.14
2022-12-16T10:38:16.004Z,98371.20
2022-12-16T10:41:37.294Z,98376.36
2022-12-16T10:45:08.553Z,98370.73
2022-12-16T10:48:30.453Z,98362.20
2022-12-16T10:51:51.283Z,98373.51
2022-12-16T10:55:37.802Z,98374.96
2022-12-16T10:59:06.445Z,98378.55
2022-12-16T11:02:38.411Z,98384.85
2022-12-16T11:05:59.312Z,98386.58
2022-12-16T11:09:52.273Z,98391.65
2022-12-16T11:13:13.635Z,98392.38
2022-12-16T11:16:46.098Z,98393.39
2022-12-16T11:20:38.224Z,98400.24
2022-12-16T11:23:58.648Z,98404.14
2022-12-16T11:27:22.295Z,98401.99
2022-12-16T11:30:42.989Z,98391.53
2022-12-16T11:34:04.133Z,98388.98
2022-12-16T11:37:24.544Z,98392.25
2022-12-16T11:40:45.068Z,98400.30
2022-12-16T11:44:09.167Z,98407.42
2022-12-16T11:47:39.995Z,98414.92
2022-12-16T11:51:09.305Z,98422.25
2022-12-16T11:54:50.721Z,98425.80
2022-12-16T11:58:29.486Z,98420.02
2022-12-16T12:02:08.081Z,98418.85
2022-12-16T12:05:33.274Z,98422.31
2022-12-16T12:09:23.249Z,98429.63
2022-12-16T12:12:55.504Z,98437.05
2022-12-16T12:16:27.904Z,98437.23
2022-12-16T12:20:12.357Z,98438.61
2022-12-16T12:23:40.050Z,98444.81
2022-12-16T12:27:05.645Z,98453.81
2022-12-16T12:30:31.071Z,98456.67
2022-12-16T12:34:10.356Z,98471.23
2022-12-16T12:37:43.880Z,98478.14
2022-12-16T12:41:44.148Z,98475.17
2022-12-16T12:45:38.989Z,98477.42
2022-12-16T12:49:09.682Z,98471.02
2022-12-16T12:53:06.186Z,98465.28
2022-12-16T12:57:01.243Z,98476.00
2022-12-16T13:00:38.047Z,98490.67
2022-12-16T13:04:22.962Z,98493.05
2022-12-16T13:07:43.369Z,98490.21
2022-12-16T13:11:03.683Z,98499.10
2022-12-16T13:15:05.692Z,98505.14
2022-12-16T13:18:26.074Z,98520.86
2022-12-16T13:21:56.388Z,98524.33
2022-12-16T13:25:22.299Z,98526.14
2022-12-16T13:28:51.041Z,98524.85
2022-12-16T13:32:20.266Z,98530.40
2022-12-16T13:35:40.752Z,98545.67
2022-12-16T13:39:09.377Z,98546.70
2022-12-16T13:42:52.124Z,98540.08
2022-12-16T13:46:18.963Z,98553.83
2022-12-16T13:49:54.872Z,98571.59
2022-12-16T13:53:17.669Z,98591.57
2022-12-16T13:56:50.680Z,98592.11
2022-12-16T14:00:12.026Z,98593.85
2022-12-16T14:03:38.567Z,98596.26
2022-12-16T14:06:59.627Z,98601.55
2022-12-16T14:10:20.187Z,98598.35
2022-12-16T14:13:40.381Z,98585.96
2022-12-16T14:17:10.619Z,98595.48
2022-12-16T14:20:35.910Z,98607.59
2022-12-16T14:24:01.262Z,98611.16
2022-12-16T14:27:49.501Z,98619.86
2022-12-16T14:31:24.830Z,98624.98
2022-12-16T14:34:54.068Z,98634.84
2022-12-16T14:38:14.731Z,98638.25
2022-12-16T14:41:40.414Z,98641.98
2022-12-16T14:45:03.831Z,98632.52
2022-12-16T14:48:43.180Z,98637.27
2022-12-16T14:52:08.135Z,98657.70
2022-12-16T14:55:36.636Z,98667.23
2022-12-16T14:58:56.983Z,98675.90
2022-12-16T15:02:27.567Z,98680.69
2022-12-16T15:05:53.234Z,98683.59
2022-12-16T15:09:16.894Z,98693.98
2022-12-16T15:12:40.673Z,98701.64
2022-12-16T15:16:04.393Z,98701.48
2022-12-16T15:19:25.183Z,98704.23
2022-12-16T15:22:45.910Z,98708.50
2022-12-16T15:26:11.274Z,98708.37
2022-12-16T15:29:50.486Z,98709.23
2022-12-16T15:33:11.365Z,98709.92
2022-12-16T15:36:52.297Z,98711.49
2022-12-16T15:40:12.868Z,98721.17
2022-12-16T15:43:40.490Z,98729.52
2022-12-16T15:47:06.870Z,98732.44
2022-12-16T15:50:31.884Z,98731.27
2022-12-16T15:53:55.831Z,98744.53
2022-12-16T15:57:16.382Z,98747.07
2022-12-16T16:00:42.168Z,98749.61
2022-12-16T16:04:11.458Z,98745.38
2022-12-16T16:07:45.185Z,98750.64
2022-12-16T16:11:06.183Z,98762.02
2022-12-16T16:14:26.916Z,98773.72
2022-12-16T16:17:47.330Z,98776.61
2022-12-16T16:21:08.406Z,98782.04
2022-12-16T16:24:29.213Z,98777.47
2022-12-16T16:27:49.607Z,98773.58
2022-12-16T16:31:10.136Z,98778.16
2022-12-16T16:34:31.514Z,98793.97
2022-12-16T16:37:51.989Z,98808.61
2022-12-16T16:41:12.423Z,98816.05
2022-12-16T16:44:33.435Z,98812.73
2022-12-16T16:47:54.337Z,98798.70
2022-12-16T16:51:16.468Z,98829.63
2022-12-16T16:54:36.596Z,98835.58
2022-12-16T16:57:57.339Z,98845.27
2022-12-16T17:01:17.679Z,98865.84
2022-12-16T17:04:38.716Z,98864.52
2022-12-16T17:07:59.153Z,98869.80
2022-12-16T17:11:19.413Z,98860.88
2022-12-16T17:14:40.039Z,98862.60
2022-12-16T17:18:00.934Z,98863.82
2022-12-16T17:21:21.507Z,98868.09
2022-12-16T17:24:46.990Z,98874.06
2022-12-16T17:28:08.624Z,98875.95
2022-12-16T17:31:29.617Z,98872.77
2022-12-16T17:34:50.117Z,98876.85
2022-12-16T17:38:10.398Z,98882.13
2022-12-16T17:41:30.487Z,98888.40
2022-12-16T17:44:50.893Z,98892.31
2022-12-16T17:48:11.383Z,98896.73
2022-12-16T17:51:31.777Z,98898.27
2022-12-16T17:54:52.009Z,98904.21
2022-12-16T17:58:12.522Z,98914.91
2022-12-16T18:01:32.889Z,98921.04
2022-12-16T18:04:53.574Z,98920.17
2022-12-16T18:08:15.167Z,98918.92
2022-12-16T18:11:38.717Z,98915.19
2022-12-16T18:14:59.676Z,98919.18
2022-12-16T18:18:20.530Z,98921.58
2022-12-16T18:21:40.780Z,98921.77
2022-12-16T18:25:01.788Z,98931.11
2022-12-16T18:28:22.525Z,98939.27
2022-12-16T18:31:42.946Z,98944.86
2022-12-16T18:35:03.136Z,98937.23
2022-12-16T18:38:23.958Z,98940.28
2022-12-16T18:41:44.930Z,98947.23
2022-12-16T18:45:11.098Z,98947.73
2022-12-16T18:48:31.653Z,98946.08
2022-12-16T18:51:52.871Z,98963.02
2022-12-16T18:55:13.030Z,98976.39
2022-12-16T19:02:13.917Z,98980.29
2022-12-16T19:05:34.753Z,98988.09
2022-12-16T19:08:55.119Z,98995.55
2022-12-16T19:12:16.700Z,99002.66
2022-12-16T19:15:41.205Z,99007.84
2022-12-16T19:19:02.616Z,99009.90
2022-12-16T19:22:23.308Z,99006.23
2022-12-16T19:25:54.411Z,99000.14
2022-12-16T19:29:17.007Z,98998.80
2022-12-16T19:32:37.653Z,98998.33
2022-12-16T19:36:14.929Z,99002.73
2022-12-16T19:39:35.262Z,99007.46
2022-12-16T19:42:55.919Z,99019.83
2022-12-16T19:46:16.555Z,99030.02
2022-12-16T19:49:42.360Z,99034.77
2022-12-16T19:53:04.302Z,99041.04
2022-12-16T19:56:25.216Z,99049.83
2022-12-16T19:59:45.521Z,99056.96
2022-12-16T20:03:06.420Z,99048.14
2022-12-16T20:06:28.165Z,99048.98
2022-12-16T20:09:48.468Z,99050.13
2022-12-16T20:13:09.035Z,99050.66
2022-12-16T20:16:31.086Z,99057.96
2022-12-16T20:19:51.480Z,99062.20
2022-12-16T20:23:14.431Z,99073.72
2022-12-16T20:26:34.694Z,99079.30
2022-12-16T20:29:56.452Z,99082.19
2022-12-16T20:33:17.202Z,99085.73
2022-12-16T20:36:38.114Z,99089.45
2022-12-16T20:39:58.750Z,99084.54
2022-12-16T20:43:19.484Z,99070.16
2022-12-16T20:46:39.894Z,99069.15
2022-12-16T20:50:00.454Z,99083.88
2022-12-16T20:53:20.861Z,99111.13
2022-12-16T20:56:41.359Z,99129.27
2022-12-16T21:00:02.208Z,99141.80
2022-12-16T21:03:44.351Z,99144.02
2022-12-16T21:07:05.252Z,99139.25
2022-12-16T21:10:26.161Z,99140.27
2022-12-16T21:13:46.925Z,99140.09
2022-12-16T21:17:07.553Z,99132.65
2022-12-16T21:20:28.378Z,99140.42
2022-12-16T21:23:49.020Z,99145.34
2022-12-16T21:27:09.481Z,99146.20
2022-12-16T21:30:30.236Z,99142.14
2022-12-16T21:33:51.366Z,99141.95
2022-12-16T21:37:12.224Z,99146.20
2022-12-16T21:40:32.988Z,99147.04
2022-12-16T21:43:53.427Z,99153.33
2022-12-16T21:47:13.653Z,99155.69
2022-12-16T21:50:35.732Z,99152.45
2022-12-16T21:53:56.145Z,99159.58
2022-12-16T21:57:17.422Z,99166.86
2022-12-16T22:00:38.016Z,99175.34
2022-12-16T22:03:58.578Z,99178.73
2022-12-16T22:07:19.292Z,99183.48
2022-12-16T22:10:40.181Z,99181.27
2022-12-16T22:14:00.644Z,99177.88
2022-12-16T22:17:21.483Z,99182.63
2022-12-16T22:20:41.802Z,99185.00
2022-12-16T22:24:02.185Z,99183.13
2022-12-16T22:27:22.899Z,99186.52
2022-12-16T22:30:44.956Z,99193.30
2022-12-16T22:34:09.032Z,99199.05
2022-12-16T22:37:30.206Z,99202.27
2022-12-16T22:40:50.678Z,99199.20
2022-12-16T22:44:10.896Z,99195.48
2022-12-16T22:47:51.250Z,99197.36
2022-12-16T22:51:12.231Z,99202.77
2022-12-16T22:54:32.694Z,99201.73
2022-12-16T22:57:53.510Z,99204.46
2022-12-16T23:01:14.210Z,99206.31
2022-12-16T23:04:35.039Z,99204.10
2022-12-16T23:07:55.546Z,99211.22
2022-12-16T23:11:18.451Z,99213.27
2022-12-16T23:14:42.834Z,99210.05
2022-12-16T23:18:03.552Z,99212.41
2022-12-16T23:21:34.014Z,99211.23
2022-12-16T23:24:54.548Z,99211.55
2022-12-16T23:28:14.998Z,99211.55
2022-12-16T23:31:35.244Z,99203.08
2022-12-16T23:34:55.797Z,99200.88
2022-12-16T23:38:23.486Z,99203.25
2022-12-16T23:41:44.401Z,99215.77
2022-12-16T23:45:04.745Z,99229.33
2022-12-16T23:48:44.472Z,99235.76
2022-12-16T23:52:04.854Z,99243.02
2022-12-16T23:55:25.581Z,99243.85
2022-12-16T23:58:46.025Z,99247.23
